Grinnell, IA (50112)

5:34 PM CST on November 26, 2014 (GMT -0600)
Grinnell Weather.com | Change Station
CLOSE
Current Station
Personal Weather Station
Location: Grinnell, IA
Elevation: 1014 ft
Nearby Weather Stations
Active Advisory: Winter Weather Advisory Active Notice: Local Storm Report

Elev 1014 ft 41.75 °N, 92.70 °W | Updated 0 second ago

Snow
Snow
28.4 °F
Feels Like 20 °F
N
9.3
Wind Variable Wind from NNE
Gusts 13.8 mph

Today
High -- | Low -- °F
--% Chance of Precip.
Yesterday
High -- | Low -- °F
Precip. -- in
7:13 AM 4:43 PM
Waxing Crescent, 23% visible
Pressure 30.14 in
Visibility 2.0 miles
Clouds Mostly Cloudy 500 ft
Overcast 1000 ft
Windchill 20 °F
Dew Point 28 °F
Humidity 98%
Rainfall 0.00 in
Snow Depth Not available.
UV 0.0 out of 12
Pollen .10 out of 12
Air Quality Not available.
Flu Activity Not available.
METAR KGGI 262315Z AUTO 01010G16KT 2SM -SN BKN005 OVC010 M01/M02 A3014 RMK AO2 T10151024

More Conditions Fewer Conditions

Pressure 30.14 in
Visibility 2.0 miles
Clouds Mostly Cloudy 500 ft
Overcast 1000 ft
Windchill 20 °F
Dew Point 28 °F
Humidity 98%
Rainfall 0.00 in
Snow Depth Not available.
UV 0.0 out of 12
Pollen .10 out of 12
Air Quality Not available.
Flu Activity Not available.
METAR KGGI 262315Z AUTO 01010G16KT 2SM -SN BKN005 OVC010 M01/M02 A3014 RMK AO2 T10151024

More Conditions Fewer Conditions

10-Day Weather Forecast

Almanac

Astronomy

Nov. 26, 2014 Rise Set
Actual Time
Civil Twilight
Nautical Twilight
Astronomical Twilight
Moon
Length of Visible Light
Length of Day
Tomorrow will be .
, % of the Moon is Illuminated

Today's Extremes

State Highs State Lows

Community

WunderPhotos

Upload Photos

1,773,919 photos uploaded!

WunderBlogs® & News

Nearby

Air Quality

  Air Quality AQ Index Pollutant
Not available.

Snow Depth

Station Depth Elevation

Earthquake Activity

City Distance Mag. Time & Date
Minimum magnitude displayed is 2.5.

Coastal Water Temperatures

Place Temperature

Nearby Weather Stations